Latest Weather Observations for Perth

IDW60801

Issued at 6:33 pm WST Thursday 24 August 2017 (issued every 30 minutes, with the page automatically refreshed every 10 minutes)

About weather observations | Map of weather stations | Latest weather observations for WA | Other Formats
Station Details ID: 009225 Name: PERTH METRO Lat: -31.92 Lon: 115.87 Height: 24.9 m
Data from the previous 72 hours. | See also: Recent months at Perth
Date/Time
WST
Temp
°C
App
Temp
°C
Dew
Point
°C
Rel
Hum
%
Delta-T
°C
Wind Press
QNH
hPa
Press
MSL
hPa
Rain since
9am
mm
Dir  Spd
km/h
Gust
km/h
Spd
kts
Gust
kts
24/06:30pm 18.2 16.7 9.3 56 4.6 SSE 7 15 4 8 1023.5 1023.5 0.0
24/06:00pm 18.8 17.4 9.0 53 5.1 E 6 17 3 9 1023.1 1023.1 0.0
24/05:30pm 19.7 17.5 9.3 51 5.5 ESE 11 20 6 11 1022.9 1022.9 0.0
24/05:00pm 20.5 17.8 9.1 48 6.0 SE 13 22 7 12 1022.7 1022.7 0.0
24/04:30pm 21.5 19.7 9.4 46 6.5 ESE 9 19 5 10 1022.7 1022.7 0.0
24/04:00pm 21.6 19.0 9.5 46 6.5 SE 13 24 7 13 1022.5 1022.5 0.0
24/03:30pm 21.8 19.1 9.0 44 6.8 ESE 13 26 7 14 1022.6 1022.6 0.0
24/03:00pm 21.6 18.6 9.2 45 6.6 SE 15 24 8 13 1022.7 1022.7 0.0
24/02:30pm 21.7 19.6 9.6 46 6.5 SE 11 24 6 13 1023.0 1023.0 0.0
24/02:00pm 21.5 19.3 9.4 46 6.5 ENE 11 20 6 11 1023.1 1023.1 0.0
24/01:30pm 20.9 18.5 10.1 50 5.8 ESE 13 20 7 11 1023.4 1023.4 0.0
24/01:00pm 20.7 18.6 9.6 49 5.9 SE 11 20 6 11 1023.9 1023.9 0.0
24/12:30pm 20.5 18.6 10.6 53 5.4 ENE 11 24 6 13 1024.5 1024.5 0.0
24/12:00pm 19.5 17.1 8.8 50 5.6 E 11 20 6 11 1025.0 1025.0 0.0
24/11:30am 19.2 16.9 9.1 52 5.3 E 11 20 6 11 1025.4 1025.4 0.0
24/11:00am 18.5 15.8 9.0 54 4.9 E 13 20 7 11 1026.0 1026.0 0.0
24/10:30am 17.7 14.6 8.8 56 4.6 ENE 15 22 8 12 1026.5 1026.5 0.0
24/10:00am 16.8 14.7 8.2 57 4.3 E 9 15 5 8 1026.6 1026.6 0.0
24/09:30am 15.9 13.8 8.4 61 3.8 E 9 19 5 10 1027.0 1027.0 0.0
24/09:00am 14.8 12.4 7.1 60 3.8 E 9 20 5 11 1027.3 1027.3 0.0
24/08:30am 14.0 11.7 7.3 64 3.3 E 9 19 5 10 1027.3 1027.3 0.0
24/08:00am 12.9 10.9 6.9 67 2.9 ESE 7 11 4 6 1027.4 1027.4 0.0
24/07:30am 12.0 9.5 6.5 69 2.6 E 9 19 5 10 1027.1 1027.1 0.0
24/07:00am 11.3 8.7 6.2 71 2.4 E 9 20 5 11 1026.9 1026.9 0.0
24/06:30am 10.6 8.5 6.6 76 1.9 E 7 17 4 9 1026.8 1026.8 0.0
24/06:00am 10.2 8.1 6.5 78 1.7 E 7 13 4 7 1026.9 1026.9 0.0
24/05:30am 10.5 8.4 6.5 76 1.9 E 7 15 4 8 1026.9 1026.9 0.0
24/05:00am 10.8 8.9 6.7 76 1.9 SE 6 11 3 6 1026.9 1026.9 0.0
24/04:30am 11.1 9.0 6.8 75 2.0 E 7 13 4 7 1027.0 1027.0 0.0
24/04:00am 10.4 9.2 6.4 76 1.9 ESE 2 9 1 5 1026.9 1026.9 0.0
24/03:30am 11.1 9.2 6.6 74 2.1 ESE 6 11 3 6 1026.8 1026.8 0.0
24/03:00am 11.1 9.0 6.8 75 2.0 SE 7 13 4 7 1026.8 1026.8 0.0
24/02:30am 9.1 7.1 6.2 82 1.3 SE 6 15 3 8 1027.1 1027.1 0.0
24/02:00am 8.6 7.6 5.5 81 1.4 CALM 0 6 0 3 1027.3 1027.3 0.0
24/01:30am 10.0 7.8 5.2 72 2.2 SSE 6 9 3 5 1027.4 1027.4 0.0
24/01:00am 10.6 8.3 5.6 71 2.3 SSE 7 11 4 6 1027.7 1027.7 0.0
24/12:30am 11.0 8.7 5.5 69 2.5 SSE 7 11 4 6 1027.9 1027.9 0.0
24/12:00am 11.3 9.0 5.8 69 2.5 SE 7 11 4 6 1027.8 1027.8 0.0
 
Date/Time
WST
Temp
°C
App
Temp
°C
Dew
Point
°C
Rel
Hum
%
Delta-T
°C
Wind Press
QNH
hPa
Press
MSL
hPa
Rain since
9am
mm
Dir  Spd
km/h
Gust
km/h
Spd
kts
Gust
kts
23/11:30pm 11.6 9.0 5.9 68 2.7 SE 9 11 5 6 1028.0 1028.0 0.0
23/11:00pm 11.4 9.1 5.9 69 2.5 SE 7 13 4 7 1028.2 1028.2 0.0
23/10:30pm 11.9 8.9 6.0 67 2.8 SE 11 15 6 8 1028.0 1028.0 0.0
23/10:00pm 10.4 8.4 6.2 75 1.9 SE 6 13 3 7 1028.2 1028.2 0.0
23/09:30pm 10.4 9.5 6.2 75 2.0 CALM 0 0 0 0 1028.4 1028.4 0.0
23/09:00pm 11.3 10.4 6.0 70 2.5 CALM 0 0 0 0 1028.4 1028.4 0.0
23/08:30pm 12.8 11.1 5.7 62 3.3 SE 4 7 2 4 1028.1 1028.1 0.0
23/08:00pm 13.7 11.6 5.8 59 3.7 SE 6 11 3 6 1027.9 1027.9 0.0
23/07:30pm 14.1 12.0 5.7 57 4.0 ESE 6 11 3 6 1027.7 1027.7 0.0
23/07:00pm 14.5 12.4 5.8 56 4.1 ESE 6 9 3 5 1027.3 1027.3 0.0
23/06:30pm 15.3 13.2 5.8 53 4.6 SE 6 11 3 6 1026.9 1026.9 0.0
23/06:00pm 16.1 13.4 5.7 50 5.0 SE 9 15 5 8 1026.6 1026.6 0.0
23/05:30pm 17.1 14.0 5.7 47 5.5 SE 11 19 6 10 1026.2 1026.2 0.0
23/05:00pm 18.0 15.4 5.9 45 5.9 SE 9 17 5 9 1025.9 1025.9 0.0
23/04:30pm 18.6 16.1 6.4 45 6.1 ESE 9 19 5 10 1025.9 1025.9 0.0
23/04:00pm 18.9 16.4 6.4 44 6.2 SE 9 17 5 9 1025.8 1025.8 0.0
23/03:30pm 18.6 15.2 6.1 44 6.2 SE 13 20 7 11 1025.8 1025.8 0.0
23/03:00pm 18.0 15.4 5.9 45 5.9 ESE 9 17 5 9 1025.8 1025.8 0.0
23/02:30pm 18.6 16.7 6.8 46 5.9 ENE 6 11 3 6 1025.9 1025.9 0.0
23/02:00pm 18.0 15.5 8.0 52 5.1 SSE 11 17 6 9 1026.0 1026.0 0.0
23/01:30pm 18.7 16.7 6.9 46 5.9 SE 7 13 4 7 1026.2 1026.2 0.0
23/01:00pm 17.5 15.3 7.8 53 4.9 SE 9 15 5 8 1026.6 1026.6 0.0
23/12:30pm 18.0 16.5 8.6 54 4.9 ESE 6 9 3 5 1027.1 1027.1 0.0
23/12:00pm 17.9 15.5 8.5 54 4.8 SE 11 19 6 10 1027.3 1027.3 0.0
23/11:30am 18.0 15.9 8.3 53 5.0 ENE 9 13 5 7 1027.4 1027.4 0.0
23/11:00am 17.6 15.6 8.7 56 4.6 E 9 19 5 10 1027.7 1027.7 0.0
23/10:30am 16.9 15.1 9.3 61 4.0 SE 9 20 5 11 1028.0 1028.0 0.0
23/10:00am 16.3 14.5 9.5 64 3.5 SE 9 15 5 8 1028.0 1028.0 0.0
23/09:30am 15.7 13.4 8.9 64 3.5 ESE 11 20 6 11 1028.0 1028.0 0.0
23/09:00am 15.4 13.8 10.2 71 2.7 SE 9 15 5 8 1027.9 1027.9 0.0
23/08:30am 13.5 12.6 10.5 82 1.6 SSE 6 11 3 6 1027.9 1027.9 0.0
23/08:00am 11.7 12.1 11.2 97 0.3 CALM 0 7 0 4 1027.6 1027.6 0.0
23/07:30am 8.9 8.5 8.3 96 0.3 CALM 0 0 0 0 1027.2 1027.2 0.0
23/07:00am 8.6 8.1 7.8 95 0.4 CALM 0 0 0 0 1026.8 1026.8 0.0
23/06:30am 8.8 8.3 7.9 94 0.4 CALM 0 0 0 0 1026.6 1026.6 0.0
23/06:00am 9.4 8.7 8.5 94 0.4 SSE 2 6 1 3 1026.3 1026.3 0.0
23/05:30am 9.6 9.2 8.4 92 0.6 CALM 0 0 0 0 1026.0 1026.0 0.0
23/05:00am 10.2 8.7 9.0 92 0.6 SSE 7 11 4 6 1025.8 1025.8 0.0
23/04:30am 10.2 8.6 8.8 91 0.7 S 7 11 4 6 1025.6 1025.6 0.0
23/04:00am 10.4 8.8 8.8 90 0.8 S 7 11 4 6 1025.5 1025.5 0.0
23/03:30am 10.7 9.3 9.0 89 0.8 S 6 9 3 5 1025.2 1025.2 0.0
23/03:00am 11.1 9.6 9.2 88 0.9 S 7 11 4 6 1025.2 1025.2 0.0
23/02:30am 11.4 10.1 9.3 87 1.1 S 6 9 3 5 1025.2 1025.2 0.0
23/02:00am 12.0 10.3 9.7 86 1.2 S 9 17 5 9 1025.1 1025.1 0.0
23/01:30am 12.4 10.7 10.0 85 1.2 S 9 15 5 8 1025.1 1025.1 0.0
23/01:00am 12.8 11.1 10.0 83 1.4 S 9 13 5 7 1025.1 1025.1 0.0
23/12:30am 13.2 11.9 10.0 81 1.6 SSE 7 11 4 6 1025.2 1025.2 0.0
23/12:00am 13.5 11.9 10.1 80 1.7 S 9 17 5 9 1025.1 1025.1 0.0
 
Date/Time
WST
Temp
°C
App
Temp
°C
Dew
Point
°C
Rel
Hum
%
Delta-T
°C
Wind Press
QNH
hPa
Press
MSL
hPa
Rain since
9am
mm
Dir  Spd
km/h
Gust
km/h
Spd
kts
Gust
kts
22/11:30pm 13.6 11.7 10.4 81 1.7 SSE 11 17 6 9 1025.1 1025.1 0.0
22/11:00pm 13.9 12.4 10.5 80 1.8 S 9 13 5 7 1025.1 1025.1 0.0
22/10:30pm 14.3 12.3 10.1 76 2.2 S 11 19 6 10 1025.2 1025.2 0.0
22/10:00pm 14.3 12.6 9.9 75 2.3 SSE 9 15 5 8 1025.0 1025.0 0.0
22/09:30pm 14.4 12.7 10.0 75 2.3 SSE 9 15 5 8 1024.9 1024.9 0.0
22/09:00pm 14.6 12.6 10.2 75 2.3 S 11 17 6 9 1024.6 1024.6 0.0
22/08:30pm 14.6 13.2 10.8 78 2.0 SSE 9 17 5 9 1024.4 1024.4 0.0
22/08:00pm 14.5 13.1 10.9 79 1.9 SSW 9 13 5 7 1024.2 1024.2 0.0
22/07:30pm 14.4 13.4 11.0 80 1.8 SSW 7 17 4 9 1023.7 1023.7 0.0
22/07:00pm 14.4 13.3 10.6 78 2.0 SSW 7 15 4 8 1023.3 1023.3 0.0
22/06:30pm 14.9 13.2 9.9 72 2.6 SW 9 22 5 12 1022.9 1022.9 0.0
22/06:00pm 15.5 12.7 8.5 63 3.5 SW 13 22 7 12 1022.5 1022.5 0.0
22/05:30pm 16.0 13.9 9.7 66 3.3 SSW 11 19 6 10 1022.2 1022.2 0.0
22/05:00pm 16.2 13.8 10.1 67 3.2 SW 13 22 7 12 1022.1 1022.1 0.0
22/04:30pm 16.9 14.9 10.1 64 3.6 SW 11 20 6 11 1021.7 1021.7 0.0
22/04:00pm 18.0 15.1 8.3 53 5.0 SW 13 22 7 12 1021.4 1021.4 0.0
22/03:30pm 18.1 15.3 8.7 54 4.9 SW 13 19 7 10 1021.3 1021.3 0.0
22/03:00pm 18.2 15.3 8.2 52 5.1 SSW 13 22 7 12 1021.2 1021.2 0.0
22/02:30pm 17.7 15.2 8.0 53 4.9 SSW 11 19 6 10 1021.1 1021.1 0.0
22/02:00pm 17.7 15.2 8.3 54 4.8 SSW 11 19 6 10 1021.0 1021.0 0.0
22/01:30pm 17.9 15.5 8.5 54 4.8 SSW 11 20 6 11 1021.2 1021.2 0.0
22/01:00pm 17.9 15.6 7.6 51 5.2 SW 9 20 5 11 1021.3 1021.3 0.0
22/12:30pm 17.9 15.1 7.0 49 5.5 SW 11 20 6 11 1021.6 1021.6 0.0
22/12:00pm 17.9 16.1 9.3 57 4.5 SSE 9 17 5 9 1021.8 1021.8 0.0
22/11:30am 16.3 14.5 9.3 63 3.6 SSW 9 13 5 7 1022.3 1022.3 0.0
22/11:00am 17.4 16.6 9.8 61 4.0 NNE 4 11 2 6 1022.4 1022.4 0.0
22/10:30am 16.5 15.8 9.9 65 3.5 NNE 4 7 2 4 1022.6 1022.6 0.0
22/10:00am 15.8 15.3 10.6 71 2.7 NNE 4 9 2 5 1022.5 1022.5 0.0
22/09:30am 14.7 13.7 11.1 79 1.9 NE 7 11 4 6 1022.3 1022.3 0.0
22/09:00am 14.8 14.3 12.5 86 1.3 ENE 7 11 4 6 1022.3 1022.3 0.6
22/08:30am 12.7 12.5 11.9 95 0.4 SW 4 7 2 4 1022.1 1022.1 0.6
22/08:00am 11.8 11.5 11.6 99 0.1 SW 4 9 2 5 1021.8 1021.8 0.6
22/07:30am 11.4 11.8 11.2 99 0.1 CALM 0 0 0 0 1021.7 1021.7 0.6
22/07:00am 11.2 11.5 11.0 99 0.1 CALM 0 0 0 0 1021.4 1021.4 0.6
22/06:30am 11.0 11.3 10.8 99 0.1 CALM 0 0 0 0 1021.0 1021.0 0.6
22/06:00am 10.6 10.8 10.4 99 0.1 CALM 0 0 0 0 1020.6 1020.6 0.6
22/05:30am 9.9 9.8 9.6 98 0.1 CALM 0 0 0 0 1020.3 1020.3 0.6
22/05:00am 9.9 9.8 9.4 97 0.2 CALM 0 0 0 0 1020.1 1020.1 0.6
22/04:30am 10.1 10.0 9.5 96 0.3 CALM 0 0 0 0 1019.9 1019.9 0.6
22/04:00am 10.8 10.6 10.3 97 0.3 SW 2 7 1 4 1019.8 1019.8 0.6
22/03:30am 11.5 11.8 10.9 96 0.3 CALM 0 6 0 3 1020.0 1020.0 0.6
22/03:00am 11.9 12.3 11.3 96 0.3 CALM 0 0 0 0 1020.3 1020.3 0.6
22/02:30am 12.1 12.6 11.5 96 0.3 CALM 0 0 0 0 1020.4 1020.4 0.6
22/02:00am 12.3 12.8 11.5 95 0.4 CALM 0 0 0 0 1020.7 1020.7 0.6
22/01:30am 12.4 12.9 11.5 94 0.5 CALM 0 0 0 0 1020.8 1020.8 0.6
22/01:00am 12.5 12.2 11.4 93 0.6 SW 4 7 2 4 1021.0 1021.0 0.6
22/12:30am 12.6 11.9 11.3 92 0.7 SW 6 9 3 5 1021.0 1021.0 0.4
22/12:00am 12.5 12.8 10.9 90 0.8 CALM 0 0 0 0 1021.1 1021.1 0.4
 
Date/Time
WST
Temp
°C
App
Temp
°C
Dew
Point
°C
Rel
Hum
%
Delta-T
°C
Wind Press
QNH
hPa
Press
MSL
hPa
Rain since
9am
mm
Dir  Spd
km/h
Gust
km/h
Spd
kts
Gust
kts
21/11:30pm 12.5 11.7 11.1 91 0.7 SW 6 9 3 5 1021.1 1021.1 0.4
21/11:00pm 12.3 12.6 10.9 91 0.7 CALM 0 0 0 0 1021.3 1021.3 0.4
21/10:30pm 12.2 12.5 10.8 91 0.7 CALM 0 0 0 0 1021.6 1021.6 0.4
21/10:00pm 12.4 12.7 10.8 90 0.8 CALM 0 0 0 0 1021.9 1021.9 0.4
21/09:30pm 12.5 12.7 10.7 89 0.9 CALM 0 0 0 0 1021.9 1021.9 0.4
21/09:00pm 12.5 12.7 10.6 88 1.0 CALM 0 0 0 0 1021.7 1021.7 0.4
21/08:30pm 12.7 12.8 10.2 85 1.3 CALM 0 0 0 0 1021.5 1021.5 0.4
21/08:00pm 13.4 13.6 10.6 83 1.5 CALM 0 0 0 0 1021.2 1021.2 0.4
21/07:30pm 13.5 13.5 11.0 85 1.3 SW 2 6 1 3 1021.0 1021.0 0.4
21/07:00pm 13.6 12.2 11.0 84 1.4 SW 9 15 5 8 1020.8 1020.8 0.4

Other Formats:

Comma delimited format used in spreadsheet applications
http://www.bom.gov.au/fwo/IDW60801/IDW60801.94608.axf

JavaScript Object Notation format (JSON) in row-major order
http://www.bom.gov.au/fwo/IDW60801/IDW60801.94608.json